Time;durP1;ratioP1;P1;durP2;ratioP2;P2;SDS_P1;SDS_P2;PMS_P1;PMS_P2;Temp;Humidity;BMP_temperature;BMP_pressure;BME280_temperature;BME280_humidity;BME280_pressure;Samples;Min_cycle;Max_cycle;Signal;HPM_P1;HPM_P2
2023/06/27 00:00:10;;;;;;;5.13;0.95;;;;;;;;;;4952495;28;20089;-79
2023/06/27 00:02:36;;;;;;;1.63;0.98;;;;;;;;;;4954019;28;20569;-79
2023/06/27 00:05:03;;;;;;;1.10;1.00;;;;;;;;;;4966323;28;20774;-80
2023/06/27 00:07:29;;;;;;;0.80;0.68;;;;;;;;;;4968375;28;20038;-80
2023/06/27 00:09:55;;;;;;;0.85;0.77;;;;;;;;;;4968442;28;20038;-80
2023/06/27 00:12:21;;;;;;;1.05;0.95;;;;;;;;;;4967898;28;20033;-80
2023/06/27 00:14:47;;;;;;;1.33;0.77;;;;;;;;;;4961642;28;20065;-79
2023/06/27 00:17:14;;;;;;;1.02;0.80;;;;;;;;;;4942908;28;20034;-79
2023/06/27 00:19:40;;;;;;;1.27;0.90;;;;;;;;;;4945046;28;20050;-79
2023/06/27 00:22:09;;;;;;;0.80;0.80;;;;;;;;;;4947463;28;20399;-79
2023/06/27 00:24:38;;;;;;;1.10;0.95;;;;;;;;;;4970811;28;20130;-80
2023/06/27 00:27:04;;;;;;;0.95;0.90;;;;;;;;;;4959020;28;20646;-80
2023/06/27 00:29:30;;;;;;;2.35;0.82;;;;;;;;;;4966416;28;20110;-80
2023/06/27 00:31:56;;;;;;;2.00;0.80;;;;;;;;;;4953670;28;20605;-80
2023/06/27 00:34:22;;;;;;;1.30;0.90;;;;;;;;;;4965327;28;20030;-80
2023/06/27 00:36:48;;;;;;;1.10;0.98;;;;;;;;;;4966931;28;20495;-80
2023/06/27 00:39:14;;;;;;;0.80;0.80;;;;;;;;;;4965398;28;20478;-81
2023/06/27 00:41:40;;;;;;;0.80;0.80;;;;;;;;;;4965096;28;20150;-80
2023/06/27 00:44:08;;;;;;;0.73;0.73;;;;;;;;;;4967718;28;20159;-81
2023/06/27 00:46:37;;;;;;;0.80;0.80;;;;;;;;;;4965286;28;20105;-79
2023/06/27 00:49:04;;;;;;;1.23;1.08;;;;;;;;;;4969849;28;20049;-79
2023/06/27 00:51:30;;;;;;;1.15;0.90;;;;;;;;;;4961302;28;20050;-80
2023/06/27 00:53:56;;;;;;;1.27;0.93;;;;;;;;;;4963884;28;20061;-80
2023/06/27 00:56:22;;;;;;;1.40;1.02;;;;;;;;;;4967433;28;20482;-81
2023/06/27 00:58:49;;;;;;;1.42;1.08;;;;;;;;;;4967092;28;20042;-80
2023/06/27 01:01:16;;;;;;;0.75;0.75;;;;;;;;;;4960093;28;20024;-80
2023/06/27 01:03:42;;;;;;;0.90;0.80;;;;;;;;;;4964478;28;20022;-81
2023/06/27 01:06:14;;;;;;;1.05;0.98;;;;;;;;;;4967726;28;20635;-80
2023/06/27 01:08:42;;;;;;;2.50;0.88;;;;;;;;;;4968373;28;20105;-80
2023/06/27 01:11:08;;;;;;;0.90;0.63;;;;;;;;;;4968692;28;20581;-80
2023/06/27 01:13:38;;;;;;;1.00;0.80;;;;;;;;;;4962625;28;20031;-80
2023/06/27 01:16:05;;;;;;;0.75;0.75;;;;;;;;;;4968630;28;20442;-80
2023/06/27 01:18:31;;;;;;;1.02;0.93;;;;;;;;;;4964734;28;20612;-80
2023/06/27 01:20:59;;;;;;;4.28;1.20;;;;;;;;;;4974985;28;20033;-79
2023/06/27 01:23:31;;;;;;;0.80;0.80;;;;;;;;;;4968538;28;20033;-80
2023/06/27 01:26:09;;;;;;;0.80;0.80;;;;;;;;;;4971376;28;20038;-79
2023/06/27 01:28:38;;;;;;;0.63;0.63;;;;;;;;;;4969541;28;20534;-80
2023/06/27 01:31:05;;;;;;;1.10;1.05;;;;;;;;;;4957295;28;20043;-79
2023/06/27 01:33:31;;;;;;;0.93;0.93;;;;;;;;;;4966240;28;20118;-79
2023/06/27 01:36:02;;;;;;;1.27;0.90;;;;;;;;;;4968138;28;20035;-79
2023/06/27 01:38:28;;;;;;;;;;;;;;;;;;4969355;28;20393;-79
2023/06/27 01:40:56;;;;;;;1.52;1.13;;;;;;;;;;4964197;28;20353;-80
2023/06/27 01:43:23;;;;;;;1.15;0.90;;;;;;;;;;4967938;28;20023;-80
2023/06/27 01:45:49;;;;;;;2.10;0.80;;;;;;;;;;4968496;28;20034;-79
2023/06/27 01:48:16;;;;;;;0.90;0.65;;;;;;;;;;4965069;28;20037;-79
2023/06/27 01:50:42;;;;;;;0.70;0.70;;;;;;;;;;4965694;28;20089;-80
2023/06/27 01:53:08;;;;;;;1.15;0.82;;;;;;;;;;4967851;28;20130;-79
2023/06/27 01:55:34;;;;;;;1.05;0.95;;;;;;;;;;4967036;28;20101;-79
2023/06/27 01:58:00;;;;;;;1.10;0.68;;;;;;;;;;4966201;28;20026;-80
2023/06/27 02:00:27;;;;;;;2.40;0.80;;;;;;;;;;4964355;28;20034;-80
2023/06/27 02:02:53;;;;;;;0.85;0.80;;;;;;;;;;4967952;28;20034;-80
2023/06/27 02:05:19;;;;;;;1.67;0.70;;;;;;;;;;4966698;28;20050;-79
2023/06/27 02:07:45;;;;;;;1.25;1.05;;;;;;;;;;4968589;28;20027;-79
2023/06/27 02:10:11;;;;;;;1.30;0.88;;;;;;;;;;4967768;28;20393;-80
2023/06/27 02:12:37;;;;;;;1.00;0.90;;;;;;;;;;4966257;28;20030;-79
2023/06/27 02:15:03;;;;;;;0.70;0.70;;;;;;;;;;4967775;28;20027;-79
2023/06/27 02:17:29;;;;;;;0.80;0.80;;;;;;;;;;4970259;28;20026;-80
2023/06/27 02:19:55;;;;;;;2.42;1.10;;;;;;;;;;4972284;28;20060;-80
2023/06/27 02:22:21;;;;;;;0.60;0.60;;;;;;;;;;4968533;28;20102;-79
2023/06/27 02:24:47;;;;;;;0.85;0.80;;;;;;;;;;4964940;28;20722;-80
2023/06/27 02:27:13;;;;;;;1.00;1.00;;;;;;;;;;4958487;28;20023;-79
2023/06/27 02:29:39;;;;;;;1.30;1.20;;;;;;;;;;4973034;28;20378;-79
2023/06/27 02:32:05;;;;;;;1.48;1.00;;;;;;;;;;4971268;28;20030;-80
2023/06/27 02:34:31;;;;;;;2.42;0.93;;;;;;;;;;4969632;28;20417;-80
2023/06/27 02:36:57;;;;;;;3.20;0.88;;;;;;;;;;4971891;28;20039;-80
2023/06/27 02:39:23;;;;;;;1.08;0.80;;;;;;;;;;4970117;28;20023;-79
2023/06/27 02:41:49;;;;;;;0.75;0.75;;;;;;;;;;4970488;28;20022;-80
2023/06/27 02:44:15;;;;;;;1.30;1.10;;;;;;;;;;4967961;28;20042;-83
2023/06/27 02:46:41;;;;;;;1.50;0.90;;;;;;;;;;4967688;28;20023;-77
2023/06/27 02:49:07;;;;;;;0.75;0.75;;;;;;;;;;4968899;28;20038;-77
2023/06/27 02:51:33;;;;;;;1.05;0.88;;;;;;;;;;4972856;28;20030;-81
2023/06/27 02:53:59;;;;;;;0.95;0.70;;;;;;;;;;4981236;28;20038;-81
2023/06/27 02:56:25;;;;;;;1.20;1.10;;;;;;;;;;4970665;28;20363;-81
2023/06/27 02:58:51;;;;;;;0.85;0.80;;;;;;;;;;4970645;28;20030;-78
2023/06/27 03:01:17;;;;;;;1.25;1.10;;;;;;;;;;4971818;28;20035;-79
2023/06/27 03:03:45;;;;;;;0.93;0.93;;;;;;;;;;4967977;28;20046;-79
2023/06/27 03:06:12;;;;;;;1.02;0.93;;;;;;;;;;4969949;28;20041;-79
2023/06/27 03:08:38;;;;;;;0.82;0.80;;;;;;;;;;4970544;28;20081;-78
2023/06/27 03:11:04;;;;;;;0.80;0.80;;;;;;;;;;4970287;28;20021;-79
2023/06/27 03:13:30;;;;;;;0.80;0.63;;;;;;;;;;4970622;28;20118;-79
2023/06/27 03:15:56;;;;;;;1.38;0.80;;;;;;;;;;4969207;28;20125;-79
2023/06/27 03:18:22;;;;;;;4.90;0.88;;;;;;;;;;4971212;28;20026;-79
2023/06/27 03:20:48;;;;;;;0.80;0.80;;;;;;;;;;4972473;28;20244;-79
2023/06/27 03:23:14;;;;;;;0.90;0.70;;;;;;;;;;4970072;28;20031;-78
2023/06/27 03:25:40;;;;;;;1.10;1.00;;;;;;;;;;4970022;28;20035;-78
2023/06/27 03:28:06;;;;;;;1.48;1.10;;;;;;;;;;4969576;28;20546;-79
2023/06/27 03:30:32;;;;;;;1.48;0.95;;;;;;;;;;4967857;28;20033;-78
2023/06/27 03:32:58;;;;;;;1.98;0.70;;;;;;;;;;4971173;28;20057;-77
2023/06/27 03:35:24;;;;;;;0.90;0.77;;;;;;;;;;4968276;28;20019;-80
2023/06/27 03:37:51;;;;;;;1.02;0.82;;;;;;;;;;4964815;28;20541;-84
2023/06/27 03:40:28;;;;;;;1.65;0.90;;;;;;;;;;4964314;28;20449;-84
2023/06/27 03:42:56;;;;;;;0.90;0.68;;;;;;;;;;4969315;28;20043;-82
2023/06/27 03:45:22;;;;;;;2.17;0.80;;;;;;;;;;4979928;28;20069;-82
2023/06/27 03:47:48;;;;;;;1.58;0.93;;;;;;;;;;4969266;28;20461;-82
2023/06/27 03:50:14;;;;;;;1.23;0.90;;;;;;;;;;4971477;28;20030;-83
2023/06/27 03:52:40;;;;;;;1.35;1.00;;;;;;;;;;4969779;28;20031;-85
2023/06/27 03:55:06;;;;;;;1.88;0.80;;;;;;;;;;4970132;28;20485;-83
2023/06/27 03:57:32;;;;;;;2.78;0.70;;;;;;;;;;4967322;28;20102;-78
2023/06/27 03:59:59;;;;;;;1.50;0.80;;;;;;;;;;4971040;28;20290;-78
2023/06/27 04:02:27;;;;;;;0.70;0.70;;;;;;;;;;4958249;28;20457;-78
2023/06/27 04:04:53;;;;;;;0.80;0.80;;;;;;;;;;4973630;28;20025;-78
2023/06/27 04:07:19;;;;;;;1.05;0.63;;;;;;;;;;4973949;28;20035;-79
2023/06/27 04:09:45;;;;;;;1.70;1.08;;;;;;;;;;4977512;28;20035;-79
2023/06/27 04:12:11;;;;;;;0.73;0.73;;;;;;;;;;4975665;28;20117;-78
2023/06/27 04:14:39;;;;;;;1.38;0.80;;;;;;;;;;4973864;28;20026;-79
2023/06/27 04:17:05;;;;;;;0.80;0.70;;;;;;;;;;4977388;28;20522;-78
2023/06/27 04:19:31;;;;;;;1.00;0.90;;;;;;;;;;4971686;28;20693;-78
2023/06/27 04:21:57;;;;;;;1.38;0.70;;;;;;;;;;4974264;28;20098;-80
2023/06/27 04:24:23;;;;;;;0.75;0.75;;;;;;;;;;4977330;28;20453;-78
2023/06/27 04:26:49;;;;;;;0.85;0.82;;;;;;;;;;4977156;28;20027;-78
2023/06/27 04:29:15;;;;;;;1.30;0.93;;;;;;;;;;4971687;28;20018;-78
2023/06/27 04:31:41;;;;;;;1.33;1.00;;;;;;;;;;4965343;28;20031;-79
2023/06/27 04:34:08;;;;;;;18.73;1.38;;;;;;;;;;4977378;28;20034;-79
2023/06/27 04:36:36;;;;;;;1.05;0.95;;;;;;;;;;4968695;28;20035;-80
2023/06/27 04:39:05;;;;;;;2.08;0.80;;;;;;;;;;4954689;28;20482;-79
2023/06/27 04:41:31;;;;;;;0.77;0.77;;;;;;;;;;4967914;28;20467;-80
2023/06/27 04:43:58;;;;;;;4.75;1.02;;;;;;;;;;4965835;28;20141;-79
2023/06/27 04:46:28;;;;;;;0.70;0.70;;;;;;;;;;4976600;28;20978;-78
2023/06/27 04:48:56;;;;;;;2.47;0.80;;;;;;;;;;4977527;28;20030;-79
2023/06/27 04:51:22;;;;;;;1.45;0.95;;;;;;;;;;4975955;28;20021;-79
2023/06/27 04:53:48;;;;;;;0.70;0.70;;;;;;;;;;4976089;28;20062;-80
2023/06/27 04:56:14;;;;;;;3.90;0.95;;;;;;;;;;4973113;28;20403;-79
2023/06/27 04:58:40;;;;;;;0.75;0.75;;;;;;;;;;4977230;28;20026;-80
2023/06/27 05:01:06;;;;;;;0.80;0.80;;;;;;;;;;4962114;28;20026;-78
2023/06/27 05:03:32;;;;;;;1.70;0.90;;;;;;;;;;4963596;28;20033;-77
2023/06/27 05:05:58;;;;;;;2.13;0.88;;;;;;;;;;4965034;28;20402;-77
2023/06/27 05:08:24;;;;;;;2.45;1.85;;;;;;;;;;4969754;28;20066;-81
2023/06/27 05:10:50;;;;;;;6.03;2.30;;;;;;;;;;4968035;28;20516;-79
2023/06/27 05:13:16;;;;;;;5.53;2.63;;;;;;;;;;4971894;28;20125;-78
2023/06/27 05:15:42;;;;;;;8.90;2.47;;;;;;;;;;4969719;28;20413;-79
2023/06/27 05:18:08;;;;;;;3.83;1.95;;;;;;;;;;4969663;28;20019;-81
2023/06/27 05:20:34;;;;;;;1.88;1.35;;;;;;;;;;4960990;28;20405;-84
2023/06/27 05:23:05;;;;;;;3.05;1.52;;;;;;;;;;4966383;28;20057;-85
2023/06/27 05:25:31;;;;;;;2.15;1.30;;;;;;;;;;4966168;28;20085;-84
2023/06/27 05:27:57;;;;;;;1.70;1.10;;;;;;;;;;4968606;28;20113;-83
2023/06/27 05:30:23;;;;;;;6.25;1.50;;;;;;;;;;4969176;28;20474;-81
2023/06/27 05:32:49;;;;;;;6.15;1.88;;;;;;;;;;4966221;28;20827;-82
2023/06/27 05:35:15;;;;;;;3.03;1.30;;;;;;;;;;4964506;28;20593;-83
2023/06/27 05:37:41;;;;;;;2.70;1.67;;;;;;;;;;4964100;28;20052;-83
2023/06/27 05:40:08;;;;;;;2.90;1.00;;;;;;;;;;4965185;28;20383;-82
2023/06/27 05:42:34;;;;;;;1.55;0.88;;;;;;;;;;4969111;28;20237;-83
2023/06/27 05:45:00;;;;;;;3.85;1.58;;;;;;;;;;4969110;28;20513;-82
2023/06/27 05:47:26;;;;;;;2.53;1.10;;;;;;;;;;4967004;28;20031;-81
2023/06/27 05:49:52;;;;;;;1.85;1.20;;;;;;;;;;4968787;28;20034;-83
2023/06/27 05:52:19;;;;;;;2.50;1.13;;;;;;;;;;4968218;28;20029;-82
2023/06/27 05:54:45;;;;;;;5.22;1.30;;;;;;;;;;4968869;28;20039;-82
2023/06/27 05:57:11;;;;;;;3.33;1.40;;;;;;;;;;4966940;28;20045;-83
2023/06/27 05:59:37;;;;;;;2.15;1.40;;;;;;;;;;4967419;28;20027;-82
2023/06/27 06:02:03;;;;;;;1.40;0.88;;;;;;;;;;4969040;28;20050;-82
2023/06/27 06:04:30;;;;;;;1.33;1.13;;;;;;;;;;4968974;28;20023;-83
2023/06/27 06:06:58;;;;;;;2.03;0.93;;;;;;;;;;4965299;28;20101;-81
2023/06/27 06:09:24;;;;;;;1.73;1.00;;;;;;;;;;4965224;28;20026;-80
2023/06/27 06:11:50;;;;;;;1.17;0.88;;;;;;;;;;4968644;28;20406;-83
2023/06/27 06:14:16;;;;;;;3.65;0.85;;;;;;;;;;4969085;28;20050;-83
2023/06/27 06:16:42;;;;;;;2.97;0.95;;;;;;;;;;4966807;28;20027;-84
2023/06/27 06:19:08;;;;;;;1.20;1.02;;;;;;;;;;4964178;28;20031;-82
2023/06/27 06:21:36;;;;;;;0.95;0.80;;;;;;;;;;4968601;28;20030;-81
2023/06/27 06:24:02;;;;;;;2.15;0.90;;;;;;;;;;4966113;28;20032;-83
2023/06/27 06:26:32;;;;;;;1.90;1.05;;;;;;;;;;4949469;28;20509;-84
2023/06/27 06:28:58;;;;;;;1.10;1.00;;;;;;;;;;4966749;28;20030;-81
2023/06/27 06:31:27;;;;;;;2.45;0.90;;;;;;;;;;4960073;28;20042;-82
2023/06/27 06:34:04;;;;;;;2.10;1.10;;;;;;;;;;4965819;28;20035;-88
2023/06/27 06:36:32;;;;;;;1.67;1.10;;;;;;;;;;4968535;28;20031;-81
2023/06/27 06:38:58;;;;;;;0.77;0.70;;;;;;;;;;4967105;28;20031;-84
2023/06/27 06:41:27;;;;;;;0.77;0.77;;;;;;;;;;4967714;28;20031;-82
2023/06/27 06:43:56;;;;;;;2.13;0.90;;;;;;;;;;4966947;28;20034;-83
2023/06/27 06:46:23;;;;;;;1.27;0.90;;;;;;;;;;4968942;28;20050;-83
2023/06/27 06:48:50;;;;;;;1.00;1.00;;;;;;;;;;4969272;28;20023;-83
2023/06/27 06:51:17;;;;;;;2.10;0.70;;;;;;;;;;4968071;28;20019;-81
2023/06/27 06:53:43;;;;;;;1.15;0.98;;;;;;;;;;4967898;28;20031;-83
2023/06/27 06:56:09;;;;;;;3.33;1.10;;;;;;;;;;4968867;28;20015;-83
2023/06/27 06:58:35;;;;;;;1.83;1.00;;;;;;;;;;4955729;28;20019;-81
2023/06/27 07:01:01;;;;;;;0.70;0.63;;;;;;;;;;4968117;28;20043;-83
2023/06/27 07:03:27;;;;;;;1.48;1.00;;;;;;;;;;4968228;28;20740;-81
2023/06/27 07:05:53;;;;;;;2.05;0.73;;;;;;;;;;4971383;28;20466;-82
2023/06/27 07:08:19;;;;;;;1.60;1.15;;;;;;;;;;4972298;28;20043;-83
2023/06/27 07:10:46;;;;;;;1.00;0.80;;;;;;;;;;4971675;28;20470;-83
2023/06/27 07:13:12;;;;;;;0.77;0.65;;;;;;;;;;4969449;28;20046;-84
2023/06/27 07:15:38;;;;;;;2.13;0.70;;;;;;;;;;4971711;28;20019;-81
2023/06/27 07:18:04;;;;;;;1.45;0.77;;;;;;;;;;4971833;28;20050;-82
2023/06/27 07:20:30;;;;;;;2.30;0.93;;;;;;;;;;4971455;28;20121;-83
2023/06/27 07:22:56;;;;;;;1.25;0.95;;;;;;;;;;4968888;28;20031;-82
2023/06/27 07:25:28;;;;;;;1.80;0.88;;;;;;;;;;4966477;28;20025;-84
2023/06/27 07:27:54;;;;;;;1.58;0.98;;;;;;;;;;4971652;28;20378;-83
2023/06/27 07:30:20;;;;;;;1.23;0.80;;;;;;;;;;4971942;28;20019;-82
2023/06/27 07:32:46;;;;;;;0.85;0.75;;;;;;;;;;4966270;28;20142;-84
2023/06/27 07:35:12;;;;;;;1.08;0.80;;;;;;;;;;4966893;28;20433;-83
2023/06/27 07:37:38;;;;;;;0.93;0.70;;;;;;;;;;4971658;28;20062;-85
2023/06/27 07:40:08;;;;;;;0.88;0.60;;;;;;;;;;4970165;28;20027;-85
2023/06/27 07:42:34;;;;;;;2.47;0.80;;;;;;;;;;4970456;28;20031;-84
2023/06/27 07:45:00;;;;;;;1.92;0.85;;;;;;;;;;4966242;28;20050;-81
2023/06/27 07:47:26;;;;;;;1.58;0.90;;;;;;;;;;4968697;28;20459;-83
2023/06/27 07:49:52;;;;;;;1.33;0.85;;;;;;;;;;4970402;28;20058;-85
2023/06/27 07:52:18;;;;;;;3.88;1.10;;;;;;;;;;4971446;28;20054;-84
2023/06/27 07:54:44;;;;;;;1.35;0.60;;;;;;;;;;4969353;28;20031;-84
2023/06/27 07:57:10;;;;;;;1.08;0.70;;;;;;;;;;4968417;28;20035;-82
2023/06/27 07:59:36;;;;;;;0.68;0.68;;;;;;;;;;4967257;28;20023;-84
2023/06/27 08:02:03;;;;;;;0.75;0.63;;;;;;;;;;4965283;28;20031;-82
2023/06/27 08:04:30;;;;;;;0.88;0.88;;;;;;;;;;4968025;28;20078;-82
2023/06/27 08:06:56;;;;;;;2.40;1.15;;;;;;;;;;4968655;28;20038;-81
2023/06/27 08:09:22;;;;;;;1.77;0.70;;;;;;;;;;4956637;28;20034;-82
2023/06/27 08:11:48;;;;;;;1.55;1.00;;;;;;;;;;4969511;28;20398;-80
2023/06/27 08:14:14;;;;;;;0.60;0.60;;;;;;;;;;4968009;28;20027;-80
2023/06/27 08:16:40;;;;;;;1.55;0.70;;;;;;;;;;4969208;28;20029;-81
2023/06/27 08:19:06;;;;;;;0.98;0.93;;;;;;;;;;4968091;28;20043;-81
2023/06/27 08:21:32;;;;;;;1.08;1.00;;;;;;;;;;4969117;28;20045;-80
2023/06/27 08:23:58;;;;;;;0.88;0.70;;;;;;;;;;4966434;28;20030;-80
2023/06/27 08:26:24;;;;;;;1.85;0.70;;;;;;;;;;4967828;28;20081;-81
2023/06/27 08:28:50;;;;;;;0.75;0.70;;;;;;;;;;4969062;28;20474;-82
2023/06/27 08:31:17;;;;;;;1.38;0.85;;;;;;;;;;4969677;28;20486;-82
2023/06/27 08:33:43;;;;;;;0.65;0.65;;;;;;;;;;4968526;28;20030;-80
2023/06/27 08:36:09;;;;;;;0.75;0.75;;;;;;;;;;4968285;28;20097;-81
2023/06/27 08:38:36;;;;;;;0.70;0.70;;;;;;;;;;4967321;28;20067;-81
2023/06/27 08:41:02;;;;;;;4.13;1.17;;;;;;;;;;4968433;28;20035;-81
2023/06/27 08:43:28;;;;;;;2.70;0.75;;;;;;;;;;4967031;28;20038;-84
2023/06/27 08:45:55;;;;;;;3.35;0.73;;;;;;;;;;4967903;28;20102;-79
2023/06/27 08:48:21;;;;;;;1.17;0.63;;;;;;;;;;4965219;28;20054;-81
2023/06/27 08:50:51;;;;;;;0.60;0.60;;;;;;;;;;4967830;28;20035;-82
2023/06/27 08:53:17;;;;;;;0.90;0.77;;;;;;;;;;4969244;28;20173;-81
2023/06/27 08:55:50;;;;;;;1.33;0.90;;;;;;;;;;4967401;28;20027;-84
2023/06/27 08:58:18;;;;;;;0.60;0.60;;;;;;;;;;4963732;28;20576;-81
2023/06/27 09:00:45;;;;;;;0.93;0.70;;;;;;;;;;4966729;28;20118;-79
2023/06/27 09:03:15;;;;;;;0.43;0.43;;;;;;;;;;4966947;28;20689;-85
2023/06/27 09:05:41;;;;;;;0.50;0.50;;;;;;;;;;4966375;28;20505;-85
2023/06/27 09:08:08;;;;;;;1.67;0.52;;;;;;;;;;4966651;28;20568;-84
2023/06/27 09:10:35;;;;;;;0.77;0.70;;;;;;;;;;4966664;28;20077;-79
2023/06/27 09:13:01;;;;;;;0.70;0.60;;;;;;;;;;4964651;28;20313;-79
2023/06/27 09:15:27;;;;;;;0.60;0.60;;;;;;;;;;4968557;28;20038;-80
2023/06/27 09:17:53;;;;;;;1.48;0.82;;;;;;;;;;4969304;28;20038;-81
2023/06/27 09:20:20;;;;;;;0.40;0.40;;;;;;;;;;4967187;28;20026;-80
2023/06/27 09:22:46;;;;;;;3.20;0.82;;;;;;;;;;4958883;28;20030;-85
2023/06/27 09:25:15;;;;;;;0.65;0.63;;;;;;;;;;4961164;28;20113;-83
2023/06/27 09:27:42;;;;;;;0.80;0.60;;;;;;;;;;4968045;28;20031;-77
2023/06/27 09:30:08;;;;;;;0.50;0.50;;;;;;;;;;4967490;28;20077;-80
2023/06/27 09:32:35;;;;;;;1.90;0.80;;;;;;;;;;4967174;28;20018;-79
2023/06/27 09:35:03;;;;;;;0.52;0.52;;;;;;;;;;4964660;28;20609;-79
2023/06/27 09:37:30;;;;;;;0.55;0.55;;;;;;;;;;4967755;28;20089;-81
2023/06/27 09:39:57;;;;;;;0.50;0.50;;;;;;;;;;4959944;28;20029;-82
2023/06/27 09:42:23;;;;;;;0.88;0.60;;;;;;;;;;4957534;28;20113;-82
2023/06/27 09:44:48;;;;;;;1.27;0.70;;;;;;;;;;4956826;28;20019;-81
2023/06/27 09:47:14;;;;;;;0.98;0.57;;;;;;;;;;4965349;28;20030;-81
2023/06/27 09:49:44;;;;;;;4.13;1.08;;;;;;;;;;4966088;28;20034;-79
2023/06/27 09:52:13;;;;;;;0.50;0.50;;;;;;;;;;4967138;28;20031;-83
2023/06/27 09:54:47;;;;;;;1.23;0.90;;;;;;;;;;4962257;28;20439;-81
2023/06/27 09:57:21;;;;;;;0.85;0.60;;;;;;;;;;4959667;28;20419;-81
2023/06/27 09:59:47;;;;;;;0.40;0.40;;;;;;;;;;4958094;28;20497;-80
2023/06/27 10:02:14;;;;;;;0.80;0.50;;;;;;;;;;4955638;28;20034;-84
2023/06/27 10:04:40;;;;;;;2.10;0.60;;;;;;;;;;4963318;28;20034;-83
2023/06/27 10:07:07;;;;;;;1.02;0.70;;;;;;;;;;4965749;28;20055;-82
2023/06/27 10:09:34;;;;;;;0.55;0.45;;;;;;;;;;4962872;28;20175;-82
2023/06/27 10:12:00;;;;;;;0.60;0.60;;;;;;;;;;4960167;28;20601;-79
2023/06/27 10:14:27;;;;;;;0.85;0.38;;;;;;;;;;4966558;28;20030;-82
2023/06/27 10:16:54;;;;;;;1.58;0.80;;;;;;;;;;4966821;28;20042;-79
2023/06/27 10:19:22;;;;;;;0.40;0.40;;;;;;;;;;4962995;28;20054;-81
2023/06/27 10:21:48;;;;;;;0.47;0.47;;;;;;;;;;4964770;28;20486;-80
2023/06/27 10:24:15;;;;;;;0.52;0.52;;;;;;;;;;4980418;28;20026;-81
2023/06/27 10:26:41;;;;;;;0.80;0.55;;;;;;;;;;4962122;28;20038;-80
2023/06/27 10:29:14;;;;;;;1.83;0.77;;;;;;;;;;4966368;28;20027;-80
2023/06/27 10:31:42;;;;;;;0.75;0.70;;;;;;;;;;4966316;28;20023;-79
2023/06/27 10:34:09;;;;;;;0.60;0.60;;;;;;;;;;4966326;28;20037;-79
2023/06/27 10:36:50;;;;;;;0.77;0.75;;;;;;;;;;4967962;28;20118;-79
2023/06/27 10:39:29;;;;;;;0.45;0.45;;;;;;;;;;4970422;28;20109;-79
2023/06/27 10:41:55;;;;;;;0.77;0.77;;;;;;;;;;4970912;28;20070;-81
2023/06/27 10:44:21;;;;;;;1.98;0.40;;;;;;;;;;4965489;28;20497;-79
2023/06/27 10:46:47;;;;;;;1.05;0.90;;;;;;;;;;4966933;28;20030;-78
2023/06/27 10:49:13;;;;;;;0.60;0.60;;;;;;;;;;4971258;28;20015;-78
2023/06/27 10:51:44;;;;;;;2.40;0.80;;;;;;;;;;4971585;28;20043;-79
2023/06/27 10:54:11;;;;;;;0.47;0.47;;;;;;;;;;4971926;28;20039;-79
2023/06/27 10:56:42;;;;;;;0.85;0.75;;;;;;;;;;4971657;28;20027;-80
2023/06/27 10:59:12;;;;;;;0.47;0.47;;;;;;;;;;4968752;28;20093;-79
2023/06/27 11:01:43;;;;;;;0.40;0.40;;;;;;;;;;4971657;28;20365;-80
2023/06/27 11:04:25;;;;;;;0.52;0.50;;;;;;;;;;4971748;28;20026;-80
2023/06/27 11:06:57;;;;;;;0.52;0.40;;;;;;;;;;4971445;28;20050;-79
2023/06/27 11:09:23;;;;;;;2.35;0.63;;;;;;;;;;4965833;28;20019;-80
2023/06/27 11:11:56;;;;;;;0.85;0.68;;;;;;;;;;4970120;28;20113;-80
2023/06/27 11:14:41;;;;;;;0.68;0.65;;;;;;;;;;4970360;28;20540;-80
2023/06/27 11:17:07;;;;;;;1.48;0.50;;;;;;;;;;4971624;28;20039;-80
2023/06/27 11:19:35;;;;;;;2.42;0.70;;;;;;;;;;4970640;28;20031;-80
2023/06/27 11:22:01;;;;;;;0.63;0.63;;;;;;;;;;4971614;28;20780;-80
2023/06/27 11:24:29;;;;;;;0.70;0.60;;;;;;;;;;4970221;28;20026;-81
2023/06/27 11:26:55;;;;;;;1.35;0.60;;;;;;;;;;4971638;28;20606;-80
2023/06/27 11:29:21;;;;;;;1.15;0.60;;;;;;;;;;4969376;28;20034;-80
2023/06/27 11:31:48;;;;;;;0.80;0.60;;;;;;;;;;4968732;28;20049;-79
2023/06/27 11:34:15;;;;;;;0.63;0.63;;;;;;;;;;4969387;28;20106;-82
2023/06/27 11:36:41;;;;;;;1.38;0.73;;;;;;;;;;4971226;28;20109;-81
2023/06/27 11:39:10;;;;;;;0.50;0.50;;;;;;;;;;4969511;28;20369;-81
2023/06/27 11:41:39;;;;;;;1.40;0.85;;;;;;;;;;4970353;28;20046;-81
2023/06/27 11:44:09;;;;;;;1.48;0.60;;;;;;;;;;4968959;28;20031;-79
2023/06/27 11:46:36;;;;;;;1.65;0.63;;;;;;;;;;4970920;28;20475;-80
2023/06/27 11:49:02;;;;;;;5.03;0.60;;;;;;;;;;4969840;28;20038;-80
2023/06/27 11:51:38;;;;;;;0.40;0.40;;;;;;;;;;4969733;28;20125;-81
2023/06/27 11:54:06;;;;;;;0.40;0.40;;;;;;;;;;4969287;28;20027;-82
2023/06/27 11:56:32;;;;;;;0.60;0.52;;;;;;;;;;4970783;28;20038;-81
2023/06/27 11:59:00;;;;;;;0.50;0.50;;;;;;;;;;4969754;28;20011;-80
2023/06/27 12:01:27;;;;;;;0.50;0.50;;;;;;;;;;4967486;28;20030;-80
2023/06/27 12:03:53;;;;;;;0.40;0.40;;;;;;;;;;4970853;28;20031;-81
2023/06/27 12:06:29;;;;;;;0.75;0.55;;;;;;;;;;4970655;28;20104;-80
2023/06/27 12:08:55;;;;;;;2.00;0.63;;;;;;;;;;4968683;28;20042;-78
2023/06/27 12:11:36;;;;;;;0.75;0.68;;;;;;;;;;4967269;28;20026;-78
2023/06/27 12:14:02;;;;;;;1.58;0.50;;;;;;;;;;4970438;28;20027;-78
2023/06/27 12:16:29;;;;;;;0.82;0.68;;;;;;;;;;4970302;28;20482;-78
2023/06/27 12:19:03;;;;;;;0.75;0.63;;;;;;;;;;4969456;28;20106;-80
2023/06/27 12:21:29;;;;;;;0.70;0.68;;;;;;;;;;4965918;28;20505;-80
2023/06/27 12:23:55;;;;;;;0.47;0.47;;;;;;;;;;4970127;28;20031;-79
2023/06/27 12:26:21;;;;;;;0.50;0.50;;;;;;;;;;4970280;28;20033;-79
2023/06/27 12:29:03;;;;;;;0.43;0.43;;;;;;;;;;4970298;28;20019;-79
2023/06/27 12:31:29;;;;;;;0.60;0.50;;;;;;;;;;4966902;28;20124;-80
2023/06/27 12:33:55;;;;;;;2.47;0.73;;;;;;;;;;4966894;28;20466;-80
2023/06/27 12:36:22;;;;;;;0.52;0.40;;;;;;;;;;4967188;28;20145;-80
2023/06/27 12:38:49;;;;;;;0.40;0.40;;;;;;;;;;4967326;28;20126;-80
2023/06/27 12:41:14;;;;;;;0.50;0.40;;;;;;;;;;4965128;28;20031;-79
2023/06/27 12:43:40;;;;;;;0.50;0.50;;;;;;;;;;4968150;28;20043;-79
2023/06/27 12:46:06;;;;;;;0.30;0.30;;;;;;;;;;4969967;28;20035;-80
2023/06/27 12:48:33;;;;;;;0.30;0.30;;;;;;;;;;4969881;28;20023;-80
2023/06/27 12:50:59;;;;;;;0.47;0.47;;;;;;;;;;4969784;28;20026;-80
2023/06/27 12:53:25;;;;;;;0.85;0.68;;;;;;;;;;4967063;28;20030;-80
2023/06/27 12:55:51;;;;;;;0.98;0.55;;;;;;;;;;4968669;28;20473;-80
2023/06/27 12:58:17;;;;;;;0.47;0.47;;;;;;;;;;4968706;28;20026;-79
2023/06/27 13:00:46;;;;;;;0.85;0.40;;;;;;;;;;4969106;28;20022;-79
2023/06/27 13:03:12;;;;;;;0.70;0.52;;;;;;;;;;4967915;28;20035;-80
2023/06/27 13:05:38;;;;;;;0.63;0.57;;;;;;;;;;4968016;28;20047;-82
2023/06/27 13:08:05;;;;;;;0.55;0.55;;;;;;;;;;4964416;28;20034;-80
2023/06/27 13:10:31;;;;;;;0.30;0.30;;;;;;;;;;4969318;28;20522;-83
2023/06/27 13:12:58;;;;;;;0.47;0.40;;;;;;;;;;4968278;28;20042;-76
2023/06/27 13:15:24;;;;;;;0.30;0.30;;;;;;;;;;4965627;28;20027;-77
2023/06/27 13:17:50;;;;;;;0.93;0.70;;;;;;;;;;4968266;28;20035;-85
2023/06/27 13:20:16;;;;;;;0.43;0.43;;;;;;;;;;4969256;28;20120;-83
2023/06/27 13:22:42;;;;;;;0.28;0.28;;;;;;;;;;4969343;28;20023;-82
2023/06/27 13:25:09;;;;;;;0.50;0.40;;;;;;;;;;4958454;28;21705;-80
2023/06/27 13:27:36;;;;;;;0.43;0.30;;;;;;;;;;4961994;28;20125;-79
2023/06/27 13:30:03;;;;;;;0.30;0.30;;;;;;;;;;4967156;28;20069;-78
2023/06/27 13:32:31;;;;;;;0.65;0.52;;;;;;;;;;4962451;28;20469;-78
2023/06/27 13:34:57;;;;;;;1.45;0.63;;;;;;;;;;4968211;28;20030;-79
2023/06/27 13:37:23;;;;;;;0.28;0.28;;;;;;;;;;4966151;28;20033;-82
2023/06/27 13:39:50;;;;;;;0.40;0.40;;;;;;;;;;4967616;28;20081;-80
2023/06/27 13:42:16;;;;;;;0.30;0.30;;;;;;;;;;4967099;28;20517;-81
2023/06/27 13:44:42;;;;;;;0.22;0.22;;;;;;;;;;4966917;28;20371;-81
2023/06/27 13:47:08;;;;;;;0.40;0.40;;;;;;;;;;4965413;28;20034;-80
2023/06/27 13:49:34;;;;;;;1.13;0.50;;;;;;;;;;4966913;28;20455;-80
2023/06/27 13:52:05;;;;;;;0.35;0.30;;;;;;;;;;4968593;28;20027;-80
2023/06/27 13:54:31;;;;;;;0.82;0.47;;;;;;;;;;4963414;28;20054;-78
2023/06/27 13:57:00;;;;;;;0.63;0.50;;;;;;;;;;4962476;28;20031;-79
2023/06/27 13:59:27;;;;;;;0.50;0.50;;;;;;;;;;4966132;28;20039;-79
2023/06/27 14:01:53;;;;;;;0.50;0.45;;;;;;;;;;4968787;28;20125;-80
2023/06/27 14:04:22;;;;;;;0.60;0.60;;;;;;;;;;4966441;28;20027;-78
2023/06/27 14:06:54;;;;;;;3.65;0.52;;;;;;;;;;4965662;28;20053;-79
2023/06/27 14:09:20;;;;;;;0.63;0.47;;;;;;;;;;4965567;28;20035;-78
2023/06/27 14:11:46;;;;;;;0.57;0.57;;;;;;;;;;4963778;28;20501;-78
2023/06/27 14:14:13;;;;;;;0.50;0.50;;;;;;;;;;4970188;28;20041;-79
2023/06/27 14:16:39;;;;;;;1.30;0.57;;;;;;;;;;4970925;28;20034;-79
2023/06/27 14:19:06;;;;;;;0.57;0.57;;;;;;;;;;4970254;28;20510;-78
2023/06/27 14:21:37;;;;;;;0.75;0.50;;;;;;;;;;4965668;28;20039;-79
2023/06/27 14:24:03;;;;;;;0.63;0.57;;;;;;;;;;4963738;28;20394;-79
2023/06/27 14:26:29;;;;;;;0.50;0.50;;;;;;;;;;4968075;28;20027;-78
2023/06/27 14:28:55;;;;;;;1.05;0.50;;;;;;;;;;4971589;28;20538;-78
2023/06/27 14:31:21;;;;;;;0.63;0.63;;;;;;;;;;4970745;28;20161;-78
2023/06/27 14:33:47;;;;;;;0.40;0.40;;;;;;;;;;4972238;28;20077;-78
2023/06/27 14:36:13;;;;;;;0.50;0.50;;;;;;;;;;4970431;28;20030;-79
2023/06/27 14:38:39;;;;;;;0.52;0.52;;;;;;;;;;4967673;28;20026;-79
2023/06/27 14:41:05;;;;;;;0.40;0.40;;;;;;;;;;4969987;28;20078;-78